createdAt,value
2019-02-24T00:00:34.306Z,0
2019-02-24T00:01:32.579Z,0
2019-02-24T00:02:32.560Z,0
2019-02-24T00:03:32.541Z,0
2019-02-24T00:04:32.529Z,0
2019-02-24T00:05:32.505Z,0
2019-02-24T00:06:32.489Z,0
2019-02-24T00:07:32.477Z,0
2019-02-24T00:08:32.461Z,0
2019-02-24T00:09:32.200Z,0
2019-02-24T00:10:32.419Z,0
2019-02-24T00:11:32.398Z,0
2019-02-24T00:12:32.379Z,0
2019-02-24T00:13:32.374Z,0
2019-02-24T00:14:32.128Z,0
2019-02-24T00:15:32.327Z,0
2019-02-24T00:16:32.317Z,0
2019-02-24T00:17:32.297Z,0
2019-02-24T00:18:32.284Z,0
2019-02-24T00:19:32.259Z,0
2019-02-24T00:20:32.005Z,0
2019-02-24T00:21:32.222Z,0
2019-02-24T00:22:32.223Z,0
2019-02-24T00:23:32.182Z,0
2019-02-24T00:24:32.168Z,0
2019-02-24T00:25:32.148Z,0
2019-02-24T00:26:32.132Z,0
2019-02-24T00:27:32.132Z,0
2019-02-24T00:28:32.102Z,0
2019-02-24T00:29:31.845Z,0
2019-02-24T00:30:32.067Z,0
2019-02-24T00:31:32.045Z,0
2019-02-24T00:32:32.027Z,0
2019-02-24T00:33:32.010Z,0
2019-02-24T00:34:32.032Z,0
2019-02-24T00:35:31.983Z,0
2019-02-24T00:36:31.958Z,0
2019-02-24T00:37:31.937Z,0
2019-02-24T00:38:31.934Z,0
2019-02-24T00:39:31.904Z,0
2019-02-24T00:40:31.884Z,0
2019-02-24T00:41:31.876Z,0
2019-02-24T00:42:31.851Z,0
2019-02-24T00:43:31.840Z,0
2019-02-24T00:44:31.869Z,0
2019-02-24T00:45:31.796Z,0
2019-02-24T00:46:31.782Z,0
2019-02-24T00:47:31.769Z,0
2019-02-24T00:48:31.747Z,0
2019-02-24T00:49:31.727Z,0
2019-02-24T00:50:31.711Z,0
2019-02-24T00:51:31.701Z,0
2019-02-24T00:52:31.680Z,0
2019-02-24T00:53:31.655Z,0
2019-02-24T00:54:31.680Z,0
2019-02-24T00:55:33.042Z,0
2019-02-24T00:56:31.606Z,0
2019-02-24T00:57:31.589Z,0
2019-02-24T00:58:31.578Z,0
2019-02-24T00:59:31.555Z,0
2019-02-24T01:00:31.540Z,0
2019-02-24T01:01:31.519Z,0
2019-02-24T01:03:31.485Z,0
2019-02-24T01:04:31.469Z,0
2019-02-24T01:05:31.453Z,0
2019-02-24T01:06:31.449Z,0
2019-02-24T01:07:31.425Z,0
2019-02-24T01:08:31.396Z,0
2019-02-24T01:09:31.396Z,0
2019-02-24T01:10:31.377Z,0
2019-02-24T01:11:31.358Z,0
2019-02-24T01:12:31.338Z,0
2019-02-24T01:13:31.313Z,0
2019-02-24T01:14:31.301Z,0
2019-02-24T01:15:31.282Z,0
2019-02-24T01:16:31.263Z,0
2019-02-24T01:17:31.249Z,0
2019-02-24T01:18:31.233Z,0
2019-02-24T01:19:31.214Z,0
2019-02-24T01:20:31.205Z,0
2019-02-24T01:21:31.181Z,0
2019-02-24T01:22:31.163Z,0
2019-02-24T01:23:31.157Z,0
2019-02-24T01:24:31.131Z,0
2019-02-24T01:25:31.120Z,0
2019-02-24T01:26:31.099Z,0
2019-02-24T01:27:31.076Z,0
2019-02-24T01:28:34.899Z,0
2019-02-24T01:29:31.046Z,0
2019-02-24T01:30:30.782Z,0
2019-02-24T01:31:31.008Z,0
2019-02-24T01:32:30.775Z,0
2019-02-24T01:33:30.981Z,0
2019-02-24T01:34:30.961Z,0
2019-02-24T01:35:30.942Z,0
2019-02-24T01:36:30.928Z,0
2019-02-24T01:37:30.917Z,0
2019-02-24T01:38:30.890Z,0
2019-02-24T01:39:30.871Z,0
2019-02-24T01:40:30.855Z,0
2019-02-24T01:41:31.138Z,0
2019-02-24T01:42:30.826Z,0
2019-02-24T01:43:30.853Z,0
2019-02-24T01:44:30.790Z,0
2019-02-24T01:45:30.790Z,0
2019-02-24T01:46:30.753Z,0
2019-02-24T01:47:30.740Z,0
2019-02-24T01:48:30.721Z,0
2019-02-24T01:49:30.701Z,0
2019-02-24T01:50:30.691Z,0
2019-02-24T01:51:30.674Z,0
2019-02-24T01:52:30.407Z,0
2019-02-24T01:53:30.635Z,0
2019-02-24T01:54:30.614Z,0
2019-02-24T01:55:30.605Z,0
2019-02-24T01:56:30.580Z,0
2019-02-24T01:57:30.615Z,0
2019-02-24T01:58:39.512Z,0
2019-02-24T01:59:30.528Z,0
2019-02-24T02:00:30.527Z,0
2019-02-24T02:01:30.511Z,0
2019-02-24T02:02:30.481Z,0
2019-02-24T02:03:30.457Z,0
2019-02-24T02:04:30.451Z,0
2019-02-24T02:05:30.188Z,0
2019-02-24T02:06:30.416Z,0
2019-02-24T02:07:45.058Z,0
2019-02-24T02:08:30.371Z,0
2019-02-24T02:09:30.362Z,0
2019-02-24T02:10:30.342Z,0
2019-02-24T02:11:30.321Z,0
2019-02-24T02:12:30.300Z,0
2019-02-24T02:13:30.288Z,0
2019-02-24T02:14:30.302Z,0
2019-02-24T02:15:30.006Z,0
2019-02-24T02:16:30.247Z,0
2019-02-24T02:17:30.214Z,0
2019-02-24T02:18:30.192Z,0
2019-02-24T02:19:30.189Z,0
2019-02-24T02:20:30.172Z,0
2019-02-24T02:21:30.141Z,0
2019-02-24T02:22:30.128Z,0
2019-02-24T02:23:30.111Z,0
2019-02-24T02:24:30.092Z,0
2019-02-24T02:25:30.072Z,0
2019-02-24T02:26:30.056Z,0
2019-02-24T02:27:30.111Z,0
2019-02-24T02:28:30.016Z,0
2019-02-24T02:29:30.004Z,0
2019-02-24T02:30:30.008Z,0
2019-02-24T02:31:29.966Z,0
2019-02-24T02:32:29.950Z,0
2019-02-24T02:33:29.963Z,0
2019-02-24T02:34:29.968Z,0
2019-02-24T02:35:29.926Z,0
2019-02-24T02:36:29.883Z,0
2019-02-24T02:37:29.873Z,0
2019-02-24T02:38:29.855Z,0
2019-02-24T02:39:29.898Z,0
2019-02-24T02:40:29.818Z,0
2019-02-24T02:41:29.808Z,0
2019-02-24T02:42:29.778Z,0
2019-02-24T02:43:29.814Z,0
2019-02-24T02:44:29.754Z,0
2019-02-24T02:45:29.722Z,0
2019-02-24T02:46:29.721Z,0
2019-02-24T02:47:29.890Z,0
2019-02-24T02:48:29.705Z,0
2019-02-24T02:49:29.644Z,0
2019-02-24T02:50:29.636Z,0
2019-02-24T02:51:29.617Z,0
2019-02-24T02:52:29.641Z,0
2019-02-24T02:53:29.585Z,0
2019-02-24T02:54:29.861Z,0
2019-02-24T02:55:29.539Z,0
2019-02-24T02:56:29.525Z,0
2019-02-24T02:57:29.556Z,0
2019-02-24T02:58:29.507Z,0
2019-02-24T02:59:29.487Z,0
2019-02-24T03:00:29.497Z,0
2019-02-24T03:01:29.447Z,0
2019-02-24T03:02:33.920Z,0
2019-02-24T03:03:29.401Z,0
2019-02-24T03:04:29.376Z,0
2019-02-24T03:05:29.364Z,0
2019-02-24T03:06:29.342Z,0
2019-02-24T03:07:29.332Z,0
2019-02-24T03:08:29.333Z,0
2019-02-24T03:09:29.299Z,0
2019-02-24T03:10:29.283Z,0
2019-02-24T03:11:29.023Z,0
2019-02-24T03:12:29.245Z,0
2019-02-24T03:13:29.228Z,0
2019-02-24T03:14:29.200Z,0
2019-02-24T03:15:29.183Z,0
2019-02-24T03:16:30.266Z,0
2019-02-24T03:17:29.178Z,0
2019-02-24T03:18:29.133Z,0
2019-02-24T03:19:29.134Z,0
2019-02-24T03:20:29.095Z,0
2019-02-24T03:21:29.079Z,0
2019-02-24T03:22:29.058Z,0
2019-02-24T03:23:28.818Z,0
2019-02-24T03:24:29.053Z,0
2019-02-24T03:25:29.012Z,0
2019-02-24T03:26:29.001Z,0
2019-02-24T03:27:28.785Z,0
2019-02-24T03:28:28.950Z,0
2019-02-24T03:29:28.972Z,0
2019-02-24T03:30:28.993Z,0
2019-02-24T03:31:28.962Z,0
2019-02-24T03:32:28.937Z,0
2019-02-24T03:33:28.886Z,0
2019-02-24T03:34:28.863Z,0
2019-02-24T03:35:28.824Z,0
2019-02-24T03:36:28.816Z,0
2019-02-24T03:37:28.797Z,0
2019-02-24T03:38:28.779Z,0
2019-02-24T03:39:28.759Z,0
2019-02-24T03:40:28.771Z,0
2019-02-24T03:41:28.775Z,0
2019-02-24T03:42:28.717Z,0
2019-02-24T03:43:28.684Z,0
2019-02-24T03:44:28.679Z,0
2019-02-24T03:45:28.652Z,0
2019-02-24T03:46:28.630Z,0
2019-02-24T03:47:28.629Z,0
2019-02-24T03:48:28.608Z,0
2019-02-24T03:49:28.653Z,0
2019-02-24T03:50:28.322Z,0
2019-02-24T03:51:28.546Z,0
2019-02-24T03:52:28.531Z,0
2019-02-24T03:53:28.510Z,0
2019-02-24T03:54:28.515Z,0
2019-02-24T03:55:28.480Z,0
2019-02-24T03:56:28.479Z,0
2019-02-24T03:57:28.451Z,0
2019-02-24T03:58:28.436Z,0
2019-02-24T03:59:28.410Z,0
2019-02-24T04:00:28.433Z,0
2019-02-24T04:01:28.381Z,0
2019-02-24T04:02:28.401Z,0
2019-02-24T04:03:28.330Z,0
2019-02-24T04:04:28.391Z,0
2019-02-24T04:05:28.325Z,0
2019-02-24T04:06:28.319Z,0
2019-02-24T04:07:28.283Z,0
2019-02-24T04:08:28.255Z,0
2019-02-24T04:09:28.234Z,0
2019-02-24T04:10:28.212Z,0
2019-02-24T04:11:28.195Z,0
2019-02-24T04:12:28.174Z,0
2019-02-24T04:13:28.167Z,0
2019-02-24T04:14:28.147Z,0
2019-02-24T04:15:28.124Z,0
2019-02-24T04:16:28.109Z,0
2019-02-24T04:17:28.081Z,0
2019-02-24T04:18:27.840Z,0
2019-02-24T04:19:28.047Z,0
2019-02-24T04:20:28.034Z,0
2019-02-24T04:21:28.022Z,0
2019-02-24T04:22:27.995Z,0
2019-02-24T04:23:27.993Z,0
2019-02-24T04:24:27.959Z,0
2019-02-24T04:25:28.089Z,0
2019-02-24T04:26:27.928Z,0
2019-02-24T04:27:27.910Z,0
2019-02-24T04:28:27.894Z,0
2019-02-24T04:29:34.267Z,0
2019-02-24T04:30:27.873Z,0
2019-02-24T04:31:27.857Z,0
2019-02-24T04:32:27.828Z,0
2019-02-24T04:33:27.801Z,0
2019-02-24T04:34:27.806Z,0
2019-02-24T04:35:27.773Z,0
2019-02-24T04:36:27.747Z,0
2019-02-24T04:37:27.766Z,0
2019-02-24T04:38:27.713Z,0
2019-02-24T04:39:27.709Z,0
2019-02-24T04:40:27.686Z,0
2019-02-24T04:41:27.675Z,0
2019-02-24T04:42:27.640Z,0
2019-02-24T04:43:27.659Z,0
2019-02-24T04:44:27.604Z,0
2019-02-24T04:45:27.592Z,0
2019-02-24T04:46:27.570Z,0
2019-02-24T04:47:27.565Z,0
2019-02-24T04:48:27.543Z,0
2019-02-24T04:49:27.550Z,0
2019-02-24T04:50:27.013Z,0
2019-02-24T04:51:27.495Z,0
2019-02-24T04:52:27.501Z,0
2019-02-24T04:53:27.446Z,0
2019-02-24T04:54:27.439Z,0
2019-02-24T04:55:27.420Z,0
2019-02-24T04:56:27.402Z,0
2019-02-24T04:57:27.383Z,0
2019-02-24T04:58:27.372Z,0
2019-02-24T04:59:37.126Z,0
2019-02-24T05:00:27.323Z,0
2019-02-24T05:01:27.315Z,0
2019-02-24T05:02:27.296Z,0
2019-02-24T05:03:27.277Z,0
2019-02-24T05:04:27.255Z,0
2019-02-24T05:05:27.246Z,0
2019-02-24T05:06:27.227Z,0
2019-02-24T05:07:27.230Z,0
2019-02-24T05:08:27.185Z,0
2019-02-24T05:09:27.168Z,0
2019-02-24T05:10:27.207Z,0
2019-02-24T05:11:27.140Z,0
2019-02-24T05:12:27.123Z,0
2019-02-24T05:13:27.104Z,0
2019-02-24T05:14:27.111Z,0
2019-02-24T05:15:27.063Z,0
2019-02-24T05:16:27.045Z,0
2019-02-24T05:17:27.040Z,0
2019-02-24T05:18:27.032Z,0
2019-02-24T05:19:26.992Z,0
2019-02-24T05:20:26.992Z,0
2019-02-24T05:21:26.954Z,0
2019-02-24T05:22:26.944Z,0
2019-02-24T05:23:26.929Z,0
2019-02-24T05:24:26.903Z,0
2019-02-24T05:25:26.894Z,0
2019-02-24T05:26:26.891Z,0
2019-02-24T05:27:26.986Z,0
2019-02-24T05:28:26.843Z,0
2019-02-24T05:29:27.647Z,0
2019-02-24T05:30:26.802Z,0
2019-02-24T05:31:26.848Z,0
2019-02-24T05:32:26.771Z,0
2019-02-24T05:33:26.750Z,0
2019-02-24T05:34:26.725Z,0
2019-02-24T05:35:26.734Z,0
2019-02-24T05:36:26.699Z,0
2019-02-24T05:37:26.433Z,0
2019-02-24T05:38:26.663Z,0
2019-02-24T05:39:26.655Z,0
2019-02-24T05:40:26.632Z,0
2019-02-24T05:41:26.617Z,0
2019-02-24T05:42:26.382Z,0
2019-02-24T05:43:26.587Z,0
2019-02-24T05:44:26.559Z,0
2019-02-24T05:45:26.566Z,0
2019-02-24T05:46:26.272Z,0
2019-02-24T05:47:26.514Z,0
2019-02-24T05:48:26.482Z,0
2019-02-24T05:49:26.481Z,0
2019-02-24T05:50:26.464Z,0
2019-02-24T05:51:26.437Z,0
2019-02-24T05:52:26.416Z,0
2019-02-24T05:53:26.419Z,0
2019-02-24T05:54:26.381Z,5
2019-02-24T05:55:26.367Z,5
2019-02-24T05:56:25.877Z,5
2019-02-24T05:57:26.324Z,5
2019-02-24T05:58:26.354Z,5
2019-02-24T05:59:26.291Z,5
2019-02-24T06:00:26.278Z,5
2019-02-24T06:01:27.114Z,5
2019-02-24T06:02:26.237Z,5
2019-02-24T06:03:26.231Z,5
2019-02-24T06:04:26.209Z,10
2019-02-24T06:05:26.208Z,10
2019-02-24T06:06:26.187Z,10
2019-02-24T06:07:26.163Z,10
2019-02-24T06:08:26.132Z,10
2019-02-24T06:09:26.127Z,15
2019-02-24T06:10:26.100Z,15
2019-02-24T06:11:26.100Z,15
2019-02-24T06:12:26.077Z,20
2019-02-24T06:13:26.064Z,20
2019-02-24T06:14:26.033Z,20
2019-02-24T06:15:26.015Z,20
2019-02-24T06:16:25.756Z,25
2019-02-24T06:17:25.986Z,25
2019-02-24T06:18:25.956Z,30
2019-02-24T06:19:25.958Z,30
2019-02-24T06:20:25.921Z,30
2019-02-24T06:21:25.907Z,35
2019-02-24T06:22:25.929Z,35
2019-02-24T06:23:25.633Z,40
2019-02-24T06:24:25.855Z,40
2019-02-24T06:25:25.869Z,40
2019-02-24T06:26:25.835Z,40
2019-02-24T06:27:25.810Z,40
2019-02-24T06:28:25.811Z,45
2019-02-24T06:29:25.782Z,45
2019-02-24T06:30:25.764Z,45
2019-02-24T06:31:25.830Z,50
2019-02-24T06:32:25.727Z,50
2019-02-24T06:33:25.707Z,55
2019-02-24T06:34:25.697Z,55
2019-02-24T06:35:25.674Z,60
2019-02-24T06:36:25.664Z,60
2019-02-24T06:37:25.630Z,60
2019-02-24T06:38:25.625Z,60
2019-02-24T06:39:25.598Z,65
2019-02-24T06:40:25.587Z,65
2019-02-24T06:41:25.564Z,65
2019-02-24T06:42:25.305Z,65
2019-02-24T06:43:25.533Z,65
2019-02-24T06:44:25.565Z,65
2019-02-24T06:45:25.511Z,65
2019-02-24T06:46:25.498Z,65
2019-02-24T06:47:25.482Z,65
2019-02-24T06:48:25.465Z,65
2019-02-24T06:49:25.463Z,65
2019-02-24T06:50:34.790Z,65
2019-02-24T06:51:25.180Z,65
2019-02-24T06:52:25.393Z,65
2019-02-24T06:53:25.372Z,60
2019-02-24T06:54:25.368Z,60
2019-02-24T06:55:25.099Z,60
2019-02-24T06:56:25.329Z,65
2019-02-24T06:57:25.306Z,65
2019-02-24T06:58:25.676Z,65
2019-02-24T06:59:25.276Z,65
2019-02-24T07:00:25.262Z,65
2019-02-24T07:01:25.245Z,65
2019-02-24T07:02:25.238Z,65
2019-02-24T07:03:25.227Z,65
2019-02-24T07:04:25.199Z,65
2019-02-24T07:05:25.178Z,65
2019-02-24T07:06:24.678Z,70
2019-02-24T07:07:24.902Z,70
2019-02-24T07:08:25.126Z,75
2019-02-24T07:09:26.284Z,75
2019-02-24T07:10:25.110Z,80
2019-02-24T07:11:25.090Z,80
2019-02-24T07:12:25.064Z,80
2019-02-24T07:13:25.050Z,85
2019-02-24T07:14:25.038Z,85
2019-02-24T07:15:25.020Z,85
2019-02-24T07:16:24.763Z,90
2019-02-24T07:17:24.742Z,90
2019-02-24T07:18:24.985Z,90
2019-02-24T07:19:24.955Z,90
2019-02-24T07:20:24.716Z,95
2019-02-24T07:21:24.933Z,95
2019-02-24T07:22:24.915Z,95
2019-02-24T07:23:24.888Z,95
2019-02-24T07:24:24.876Z,100
2019-02-24T07:25:24.855Z,100
2019-02-24T07:26:24.853Z,105
2019-02-24T07:27:24.824Z,105
2019-02-24T07:28:24.831Z,105
2019-02-24T07:29:24.794Z,105
2019-02-24T07:30:32.870Z,110
2019-02-24T07:31:24.782Z,110
2019-02-24T07:32:24.750Z,110
2019-02-24T07:33:24.752Z,115
2019-02-24T07:34:24.737Z,115
2019-02-24T07:35:24.717Z,115
2019-02-24T07:36:24.703Z,115
2019-02-24T07:37:24.682Z,115
2019-02-24T07:38:24.657Z,120
2019-02-24T07:39:24.642Z,125
2019-02-24T07:40:24.624Z,125
2019-02-24T07:41:24.606Z,135
2019-02-24T07:42:24.596Z,140
2019-02-24T07:43:24.582Z,145
2019-02-24T07:44:24.574Z,155
2019-02-24T07:45:24.547Z,160
2019-02-24T07:46:24.296Z,165
2019-02-24T07:47:24.520Z,170
2019-02-24T07:48:24.501Z,175
2019-02-24T07:49:24.492Z,180
2019-02-24T07:50:24.474Z,180
2019-02-24T07:51:24.456Z,185
2019-02-24T07:52:24.451Z,185
2019-02-24T07:53:24.444Z,190
2019-02-24T07:54:23.930Z,190
2019-02-24T07:55:24.398Z,195
2019-02-24T07:56:24.382Z,200
2019-02-24T07:57:24.370Z,195
2019-02-24T07:58:24.391Z,195
2019-02-24T07:59:24.345Z,195
2019-02-24T08:00:31.876Z,190
2019-02-24T08:01:24.313Z,195
2019-02-24T08:02:24.294Z,195
2019-02-24T08:03:24.286Z,195
2019-02-24T08:04:24.282Z,195
2019-02-24T08:05:24.251Z,195
2019-02-24T08:06:24.534Z,195
2019-02-24T08:07:24.221Z,200
2019-02-24T08:08:26.214Z,195
2019-02-24T08:09:24.193Z,195
2019-02-24T08:10:24.181Z,195
2019-02-24T08:11:24.174Z,200
2019-02-24T08:12:24.155Z,200
2019-02-24T08:13:24.138Z,205
2019-02-24T08:14:24.125Z,210
2019-02-24T08:15:24.104Z,210
2019-02-24T08:16:24.095Z,215
2019-02-24T08:17:24.088Z,215
2019-02-24T08:18:24.107Z,215
2019-02-24T08:19:24.070Z,215
2019-02-24T08:20:24.040Z,215
2019-02-24T08:21:24.026Z,215
2019-02-24T08:22:24.065Z,220
2019-02-24T08:23:23.996Z,220
2019-02-24T08:24:23.981Z,220
2019-02-24T08:25:23.967Z,220
2019-02-24T08:26:23.953Z,225
2019-02-24T08:27:23.939Z,225
2019-02-24T08:28:23.925Z,230
2019-02-24T08:29:23.913Z,235
2019-02-24T08:30:23.902Z,240
2019-02-24T08:31:23.885Z,250
2019-02-24T08:32:23.876Z,250
2019-02-24T08:33:23.863Z,250
2019-02-24T08:34:23.840Z,255
2019-02-24T08:35:23.832Z,260
2019-02-24T08:36:23.857Z,260
2019-02-24T08:37:23.862Z,260
2019-02-24T08:38:23.815Z,265
2019-02-24T08:39:23.790Z,270
2019-02-24T08:40:23.768Z,275
2019-02-24T08:41:23.757Z,275
2019-02-24T08:42:23.741Z,280
2019-02-24T08:43:23.734Z,275
2019-02-24T08:44:24.687Z,275
2019-02-24T08:45:23.712Z,270
2019-02-24T08:46:23.683Z,260
2019-02-24T08:47:23.677Z,245
2019-02-24T08:48:24.099Z,235
2019-02-24T08:49:23.647Z,225
2019-02-24T08:50:23.400Z,215
2019-02-24T08:51:23.535Z,205
2019-02-24T08:52:23.613Z,200
2019-02-24T08:53:23.605Z,185
2019-02-24T08:54:23.595Z,180
2019-02-24T08:55:23.591Z,170
2019-02-24T08:56:23.592Z,165
2019-02-24T08:57:23.558Z,165
2019-02-24T08:58:23.536Z,160
2019-02-24T08:59:23.530Z,150
2019-02-24T09:00:23.521Z,145
2019-02-24T09:01:23.498Z,140
2019-02-24T09:02:23.486Z,140
2019-02-24T09:03:23.472Z,135
2019-02-24T09:04:23.455Z,135
2019-02-24T09:05:23.443Z,140
2019-02-24T09:06:23.435Z,140
2019-02-24T09:07:23.422Z,145
2019-02-24T09:08:23.403Z,150
2019-02-24T09:09:23.448Z,150
2019-02-24T09:10:23.379Z,155
2019-02-24T09:11:23.361Z,155
2019-02-24T09:12:24.425Z,155
2019-02-24T09:13:23.585Z,155
2019-02-24T09:14:24.011Z,160
2019-02-24T09:15:23.337Z,155
2019-02-24T09:16:23.319Z,150
2019-02-24T09:17:23.317Z,155
2019-02-24T09:18:23.272Z,155
2019-02-24T09:19:23.271Z,155
2019-02-24T09:20:23.267Z,155
2019-02-24T09:21:23.247Z,155
2019-02-24T09:22:23.225Z,155
2019-02-24T09:23:23.225Z,160
2019-02-24T09:24:23.203Z,160
2019-02-24T09:25:23.187Z,160
2019-02-24T09:26:23.183Z,160
2019-02-24T09:27:23.152Z,160
2019-02-24T09:28:23.141Z,155
2019-02-24T09:29:23.134Z,155
2019-02-24T09:30:23.163Z,155
2019-02-24T09:31:23.094Z,155
2019-02-24T09:32:23.089Z,155
2019-02-24T09:33:23.073Z,155
2019-02-24T09:34:23.065Z,155
2019-02-24T09:35:23.063Z,155
2019-02-24T09:36:23.060Z,155
2019-02-24T09:37:23.017Z,155
2019-02-24T09:38:23.001Z,155
2019-02-24T09:39:22.996Z,155
2019-02-24T09:40:22.979Z,155
2019-02-24T09:41:22.964Z,155
2019-02-24T09:42:22.951Z,155
2019-02-24T09:43:22.933Z,155
2019-02-24T09:44:23.180Z,155
2019-02-24T09:45:22.904Z,155
2019-02-24T09:46:22.888Z,155
2019-02-24T09:47:22.879Z,155
2019-02-24T09:48:22.882Z,155
2019-02-24T09:49:22.869Z,155
2019-02-24T09:50:22.848Z,155
2019-02-24T09:51:22.830Z,155
2019-02-24T09:52:22.821Z,155
2019-02-24T09:53:22.810Z,155
2019-02-24T09:54:22.788Z,155
2019-02-24T09:55:22.546Z,155
2019-02-24T09:56:22.759Z,155
2019-02-24T09:57:22.746Z,155
2019-02-24T09:58:22.741Z,155
2019-02-24T09:59:22.726Z,155
2019-02-24T10:00:24.469Z,155
2019-02-24T10:01:22.714Z,155
2019-02-24T10:02:22.686Z,155
2019-02-24T10:03:22.699Z,155
2019-02-24T10:04:22.673Z,155
2019-02-24T10:05:22.693Z,155
2019-02-24T10:06:22.635Z,155
2019-02-24T10:07:22.620Z,150
2019-02-24T10:08:22.648Z,150
2019-02-24T10:09:22.602Z,150
2019-02-24T10:10:22.583Z,150
2019-02-24T10:11:22.793Z,150
2019-02-24T10:12:22.553Z,150
2019-02-24T10:13:22.545Z,150
2019-02-24T10:14:22.538Z,150
2019-02-24T10:15:22.535Z,150
2019-02-24T10:16:22.499Z,150
2019-02-24T10:17:22.485Z,150
2019-02-24T10:18:22.483Z,150
2019-02-24T10:19:22.459Z,150
2019-02-24T10:20:22.476Z,150
2019-02-24T10:21:22.441Z,150
2019-02-24T10:22:22.450Z,150
2019-02-24T10:23:22.416Z,150
2019-02-24T10:24:22.428Z,150
2019-02-24T10:25:22.389Z,150
2019-02-24T10:26:22.374Z,150
2019-02-24T10:27:22.365Z,150
2019-02-24T10:28:22.343Z,150
2019-02-24T10:29:22.097Z,150
2019-02-24T10:30:22.350Z,150
2019-02-24T10:31:29.293Z,150
2019-02-24T10:32:22.317Z,150
2019-02-24T10:33:22.042Z,150
2019-02-24T10:34:22.284Z,150
2019-02-24T10:35:22.273Z,150
2019-02-24T10:36:22.260Z,150
2019-02-24T10:37:22.241Z,150
2019-02-24T10:38:22.222Z,150
2019-02-24T10:39:31.862Z,150
2019-02-24T10:40:22.205Z,150
2019-02-24T10:41:22.197Z,150
2019-02-24T10:42:22.219Z,150
2019-02-24T10:43:22.165Z,150
2019-02-24T10:44:22.151Z,150
2019-02-24T10:45:21.951Z,150
2019-02-24T10:46:22.141Z,150
2019-02-24T10:47:22.372Z,150
2019-02-24T10:48:23.795Z,150
2019-02-24T10:49:22.098Z,150
2019-02-24T10:50:22.086Z,150
2019-02-24T10:51:22.082Z,145
2019-02-24T10:52:21.848Z,145
2019-02-24T10:53:22.072Z,145
2019-02-24T10:54:22.035Z,145
2019-02-24T10:55:22.023Z,145
2019-02-24T10:56:22.014Z,145
2019-02-24T10:57:22.303Z,145
2019-02-24T10:58:23.708Z,145
2019-02-24T10:59:24.008Z,145
2019-02-24T11:00:21.980Z,145
2019-02-24T11:01:31.681Z,145
2019-02-24T11:02:21.939Z,145
2019-02-24T11:03:21.943Z,145
2019-02-24T11:04:21.914Z,145
2019-02-24T11:05:21.908Z,145
2019-02-24T11:06:21.898Z,145
2019-02-24T11:07:21.880Z,145
2019-02-24T11:08:21.925Z,145
2019-02-24T11:09:21.857Z,145
2019-02-24T11:10:21.855Z,145
2019-02-24T11:11:21.845Z,145
2019-02-24T11:12:21.827Z,145
2019-02-24T11:13:21.811Z,145
2019-02-24T11:14:21.797Z,145
2019-02-24T11:15:21.785Z,145
2019-02-24T11:16:21.829Z,145
2019-02-24T11:17:21.764Z,145
2019-02-24T11:18:22.003Z,145
2019-02-24T11:19:21.744Z,145
2019-02-24T11:20:21.740Z,145
2019-02-24T11:21:21.728Z,145
2019-02-24T11:22:21.705Z,145
2019-02-24T11:23:21.698Z,145
2019-02-24T11:24:21.733Z,145
2019-02-24T11:25:21.679Z,145
2019-02-24T11:26:21.711Z,145
2019-02-24T11:27:21.652Z,145
2019-02-24T11:28:21.639Z,145
2019-02-24T11:29:21.635Z,145
2019-02-24T11:30:21.389Z,145
2019-02-24T11:31:21.678Z,145
2019-02-24T11:32:21.605Z,145
2019-02-24T11:33:21.593Z,145
2019-02-24T11:34:21.574Z,145
2019-02-24T11:35:21.578Z,145
2019-02-24T11:36:21.589Z,145
2019-02-24T11:37:21.544Z,145
2019-02-24T11:38:21.536Z,145
2019-02-24T11:39:21.523Z,145
2019-02-24T11:40:21.518Z,145
2019-02-24T11:41:21.498Z,145
2019-02-24T11:42:21.492Z,140
2019-02-24T11:43:22.595Z,140
2019-02-24T11:44:21.463Z,140
2019-02-24T11:45:21.489Z,140
2019-02-24T11:46:21.445Z,140
2019-02-24T11:47:21.432Z,140
2019-02-24T11:48:21.422Z,140
2019-02-24T11:49:21.663Z,140
2019-02-24T11:50:21.407Z,140
2019-02-24T11:51:21.398Z,140
2019-02-24T11:52:21.375Z,140
2019-02-24T11:53:21.382Z,140
2019-02-24T11:54:21.356Z,140
2019-02-24T11:55:21.343Z,140
2019-02-24T11:56:21.902Z,140
2019-02-24T11:57:21.089Z,140
2019-02-24T11:58:21.315Z,140
2019-02-24T11:59:21.305Z,140
2019-02-24T12:00:21.099Z,140
2019-02-24T12:01:21.291Z,140
2019-02-24T12:02:21.280Z,140
2019-02-24T12:03:21.267Z,140
2019-02-24T12:04:21.253Z,140
2019-02-24T12:05:21.240Z,140
2019-02-24T12:06:21.232Z,140
2019-02-24T12:07:21.219Z,140
2019-02-24T12:08:21.217Z,140
2019-02-24T12:09:21.198Z,140
2019-02-24T12:10:21.193Z,140
2019-02-24T12:11:21.182Z,140
2019-02-24T12:12:21.184Z,140
2019-02-24T12:13:21.161Z,140
2019-02-24T12:14:21.148Z,140
2019-02-24T12:15:21.151Z,140
2019-02-24T12:16:21.162Z,140
2019-02-24T12:17:21.114Z,140
2019-02-24T12:18:20.859Z,140
2019-02-24T12:19:21.096Z,140
2019-02-24T12:20:21.344Z,140
2019-02-24T12:21:21.079Z,140
2019-02-24T12:22:21.067Z,140
2019-02-24T12:23:21.062Z,140
2019-02-24T12:24:21.048Z,140
2019-02-24T12:25:21.071Z,140
2019-02-24T12:26:21.026Z,140
2019-02-24T12:27:21.021Z,140
2019-02-24T12:28:21.000Z,140
2019-02-24T12:29:20.992Z,140
2019-02-24T12:30:20.984Z,140
2019-02-24T12:31:20.748Z,140
2019-02-24T12:32:20.968Z,140
2019-02-24T12:33:20.969Z,140
2019-02-24T12:34:20.945Z,140
2019-02-24T12:35:20.955Z,140
2019-02-24T12:36:20.923Z,140
2019-02-24T12:37:22.245Z,140
2019-02-24T12:38:20.897Z,140
2019-02-24T12:39:20.931Z,140
2019-02-24T12:40:20.904Z,140
2019-02-24T12:41:22.547Z,140
2019-02-24T12:42:20.858Z,140
2019-02-24T12:43:20.849Z,140
2019-02-24T12:44:20.833Z,140
2019-02-24T12:45:20.829Z,140
2019-02-24T12:46:21.115Z,140
2019-02-24T12:47:20.805Z,140
2019-02-24T12:48:20.842Z,140
2019-02-24T12:49:20.823Z,140
2019-02-24T12:50:20.789Z,140
2019-02-24T12:51:21.321Z,140
2019-02-24T12:52:20.823Z,140
2019-02-24T12:53:20.744Z,140
2019-02-24T12:54:20.734Z,140
2019-02-24T12:55:35.397Z,140
2019-02-24T12:56:22.088Z,140
2019-02-24T12:57:20.732Z,140
2019-02-24T12:58:20.696Z,140
2019-02-24T12:59:21.444Z,140
2019-02-24T13:00:20.686Z,140
2019-02-24T13:01:20.679Z,140
2019-02-24T13:02:20.658Z,145
2019-02-24T13:03:28.748Z,145
2019-02-24T13:04:20.654Z,145
2019-02-24T13:05:20.631Z,145
2019-02-24T13:06:20.615Z,150
2019-02-24T13:07:20.612Z,150
2019-02-24T13:08:20.617Z,150
2019-02-24T13:09:22.006Z,150
2019-02-24T13:10:20.583Z,150
2019-02-24T13:11:20.572Z,150
2019-02-24T13:12:20.564Z,145
2019-02-24T13:13:20.555Z,145
2019-02-24T13:14:20.541Z,145
2019-02-24T13:15:20.545Z,145
2019-02-24T13:16:20.561Z,140
2019-02-24T13:17:20.511Z,140
2019-02-24T13:18:20.523Z,140
2019-02-24T13:19:20.503Z,140
2019-02-24T13:20:20.488Z,140
2019-02-24T13:21:20.477Z,140
2019-02-24T13:22:20.717Z,135
2019-02-24T13:23:20.466Z,135
2019-02-24T13:24:20.446Z,135
2019-02-24T13:25:20.441Z,135
2019-02-24T13:26:20.422Z,135
2019-02-24T13:27:20.417Z,135
2019-02-24T13:28:35.080Z,135
2019-02-24T13:29:20.397Z,130
2019-02-24T13:30:20.396Z,130
2019-02-24T13:31:20.374Z,130
2019-02-24T13:32:24.375Z,130
2019-02-24T13:33:20.368Z,130
2019-02-24T13:34:20.349Z,130
2019-02-24T13:35:20.342Z,130
2019-02-24T13:36:20.342Z,130
2019-02-24T13:37:20.333Z,130
2019-02-24T13:38:20.364Z,130
2019-02-24T13:39:20.064Z,130
2019-02-24T13:40:20.081Z,130
2019-02-24T13:41:20.282Z,130
2019-02-24T13:42:20.271Z,125
2019-02-24T13:43:21.494Z,125
2019-02-24T13:44:20.265Z,125
2019-02-24T13:45:20.267Z,125
2019-02-24T13:46:20.243Z,125
2019-02-24T13:47:20.226Z,125
2019-02-24T13:48:20.213Z,125
2019-02-24T13:49:20.210Z,125
2019-02-24T13:50:20.201Z,125
2019-02-24T13:51:20.201Z,125
2019-02-24T13:52:20.179Z,125
2019-02-24T13:53:20.519Z,125
2019-02-24T13:54:20.216Z,125
2019-02-24T13:55:20.148Z,125
2019-02-24T13:56:20.138Z,125
2019-02-24T13:57:20.139Z,125
2019-02-24T13:58:20.119Z,125
2019-02-24T13:59:20.115Z,125
2019-02-24T14:00:20.112Z,125
2019-02-24T14:01:20.097Z,125
2019-02-24T14:02:28.432Z,125
2019-02-24T14:03:20.084Z,125
2019-02-24T14:04:20.066Z,125
2019-02-24T14:05:20.059Z,125
2019-02-24T14:06:20.465Z,120
2019-02-24T14:07:20.041Z,120
2019-02-24T14:08:20.039Z,120
2019-02-24T14:09:20.020Z,120
2019-02-24T14:11:20.004Z,120
2019-02-24T14:12:19.995Z,120
2019-02-24T14:13:19.987Z,120
2019-02-24T14:14:19.974Z,120
2019-02-24T14:15:19.974Z,120